TimePST,TemperatureF,Dew PointF,Humidity,Sea Level PressureIn,VisibilityMPH,Wind Direction,Wind SpeedMPH,Gust SpeedMPH,PrecipitationIn,Events,Conditions,WindDirDegrees,DateUTC
12:53 AM,39.9,32.0,73,30.10,10.0,NNE,3.5,-,N/A,,Clear,20,2012-12-28 08:53:00
1:53 AM,39.9,33.1,77,30.11,10.0,Calm,Calm,-,N/A,,Clear,0,2012-12-28 09:53:00
3:53 AM,37.0,32.0,82,30.11,10.0,Calm,Calm,-,N/A,,Clear,0,2012-12-28 11:53:00
4:53 AM,37.9,30.9,76,30.11,10.0,ENE,3.5,-,N/A,,Clear,70,2012-12-28 12:53:00
5:53 AM,37.9,30.9,76,30.11,10.0,Calm,Calm,-,N/A,,Clear,0,2012-12-28 13:53:00
6:53 AM,37.0,33.1,86,30.12,10.0,Calm,Calm,-,N/A,,Clear,0,2012-12-28 14:53:00
8:53 AM,48.9,37.0,64,30.15,10.0,Calm,Calm,-,N/A,,Clear,0,2012-12-28 16:53:00
9:53 AM,55.9,41.0,57,30.17,10.0,Calm,Calm,-,N/A,,Clear,0,2012-12-28 17:53:00
10:53 AM,59.0,32.0,36,30.16,10.0,South,4.6,-,N/A,,Scattered Clouds,170,2012-12-28 18:53:00
11:53 AM,59.0,28.9,32,30.13,10.0,South,4.6,-,N/A,,Clear,170,2012-12-28 19:53:00
12:53 PM,59.0,34.0,39,30.10,10.0,SE,5.8,-,N/A,,Scattered Clouds,140,2012-12-28 20:53:00
1:53 PM,57.9,36.0,44,30.09,10.0,Calm,Calm,-,N/A,,Scattered Clouds,0,2012-12-28 21:53:00
2:53 PM,57.0,39.9,53,30.09,10.0,ESE,5.8,-,N/A,,Clear,110,2012-12-28 22:53:00
3:53 PM,57.0,45.0,64,30.08,10.0,ESE,5.8,-,N/A,,Clear,110,2012-12-28 23:53:00
4:53 PM,55.0,46.0,72,30.09,10.0,East,4.6,-,N/A,,Clear,80,2012-12-29 00:53:00
5:53 PM,53.1,46.0,77,30.09,10.0,NE,5.8,-,N/A,,Partly Cloudy,40,2012-12-29 01:53:00
6:53 PM,51.1,44.1,77,30.09,10.0,ENE,3.5,-,N/A,,Clear,70,2012-12-29 02:53:00
7:53 PM,48.0,43.0,83,30.09,9.0,Calm,Calm,-,N/A,,Clear,0,2012-12-29 03:53:00
8:53 PM,46.0,42.1,86,30.08,9.0,Calm,Calm,-,N/A,,Partly Cloudy,0,2012-12-29 04:53:00
9:53 PM,44.1,37.0,76,30.07,10.0,Calm,Calm,-,N/A,,Clear,0,2012-12-29 05:53:00
10:53 PM,45.0,37.9,76,30.07,10.0,Calm,Calm,-,N/A,,Scattered Clouds,0,2012-12-29 06:53:00
11:53 PM,44.1,39.0,82,30.06,9.0,Calm,Calm,-,N/A,,Partly Cloudy,0,2012-12-29 07:53:00